createdAt,value
2019-03-02T00:00:51.935Z,97307.19
2019-03-02T00:03:23.162Z,97313.06
2019-03-02T00:05:56.997Z,97315.30
2019-03-02T00:08:28.463Z,97313.06
2019-03-02T00:10:59.900Z,97310.19
2019-03-02T00:13:39.775Z,97306.36
2019-03-02T00:16:13.975Z,97309.09
2019-03-02T00:18:48.038Z,97302.91
2019-03-02T00:21:19.485Z,97304.63
2019-03-02T00:24:35.518Z,97297.13
2019-03-02T00:27:11.951Z,97298.25
2019-03-02T00:29:45.929Z,97304.13
2019-03-02T00:32:23.662Z,97307.75
2019-03-02T00:34:54.475Z,97305.73
2019-03-02T00:37:26.007Z,97309.77
2019-03-02T00:39:59.115Z,97311.52
2019-03-02T00:42:29.793Z,97308.14
2019-03-02T00:45:01.039Z,97309.40
2019-03-02T00:47:34.960Z,97314.23
2019-03-02T00:50:05.661Z,97314.92
2019-03-02T00:52:37.455Z,97309.33
2019-03-02T00:55:08.443Z,97311.30
2019-03-02T00:57:40.263Z,97310.15
2019-03-02T01:00:18.250Z,97315.78
2019-03-02T01:02:48.974Z,97316.44
2019-03-02T01:05:20.094Z,97325.25
2019-03-02T01:07:56.092Z,97315.69
2019-03-02T01:10:28.260Z,97319.90
2019-03-02T01:13:20.151Z,97318.23
2019-03-02T01:15:56.064Z,97319.52
2019-03-02T01:18:30.890Z,97312.38
2019-03-02T01:21:10.326Z,97307.36
2019-03-02T01:23:43.113Z,97316.60
2019-03-02T01:26:17.130Z,97310.25
2019-03-02T01:28:50.446Z,97313.03
2019-03-02T01:31:21.276Z,97310.47
2019-03-02T01:33:56.571Z,97315.86
2019-03-02T01:36:28.749Z,97316.23
2019-03-02T01:39:03.272Z,97308.01
2019-03-02T01:41:35.062Z,97306.08
2019-03-02T01:44:06.177Z,97304.81
2019-03-02T01:46:40.851Z,97299.61
2019-03-02T01:49:20.063Z,97306.27
2019-03-02T01:51:54.711Z,97304.09
2019-03-02T01:54:30.401Z,97301.24
2019-03-02T01:57:08.173Z,97307.09
2019-03-02T01:59:40.198Z,97303.19
2019-03-02T03:01:54.050Z,97267.42
2019-03-02T03:04:27.910Z,97268.30
2019-03-02T03:06:58.606Z,97269.62
2019-03-02T03:09:40.257Z,97261.55
2019-03-02T03:12:11.625Z,97258.50
2019-03-02T03:14:42.649Z,97250.77
2019-03-02T03:17:14.311Z,97250.01
2019-03-02T03:19:46.371Z,97248.83
2019-03-02T03:22:17.759Z,97253.47
2019-03-02T03:24:49.035Z,97240.08
2019-03-02T03:27:20.716Z,97229.19
2019-03-02T03:29:52.025Z,97239.65
2019-03-02T03:32:23.090Z,97240.17
2019-03-02T03:34:54.840Z,97239.69
2019-03-02T03:37:26.139Z,97243.26
2019-03-02T03:39:57.168Z,97244.78
2019-03-02T03:42:28.512Z,97247.34
2019-03-02T03:44:59.718Z,97247.78
2019-03-02T03:47:34.152Z,97240.77
2019-03-02T03:50:09.124Z,97245.03
2019-03-02T03:52:38.682Z,97246.10
2019-03-02T03:55:09.988Z,97244.01
2019-03-02T03:57:41.078Z,97251.59
2019-03-02T04:00:14.424Z,97250.31
2019-03-02T04:02:45.421Z,97249.52
2019-03-02T04:05:16.461Z,97250.36
2019-03-02T04:07:49.688Z,97247.47
2019-03-02T04:10:25.763Z,97245.40
2019-03-02T04:12:53.808Z,97241.70
2019-03-02T04:15:25.950Z,97238.50
2019-03-02T04:17:56.636Z,97244.66
2019-03-02T04:20:38.197Z,97249.98
2019-03-02T04:23:11.776Z,97250.52
2019-03-02T04:26:08.554Z,97247.27
2019-03-02T04:28:40.309Z,97250.00
2019-03-02T04:31:11.693Z,97256.31
2019-03-02T04:33:44.585Z,97254.84
2019-03-02T04:36:16.408Z,97258.08
2019-03-02T04:38:48.091Z,97253.70
2019-03-02T04:41:18.796Z,97249.47
2019-03-02T04:43:50.639Z,97252.03
2019-03-02T04:46:22.791Z,97257.13
2019-03-02T04:48:54.471Z,97254.39
2019-03-02T04:51:25.487Z,97258.89
2019-03-02T04:53:58.108Z,97259.16
2019-03-02T04:56:29.329Z,97259.50
2019-03-02T04:59:00.199Z,97263.76
2019-03-02T05:01:31.835Z,97265.04
2019-03-02T05:04:03.580Z,97263.46
2019-03-02T05:06:34.638Z,97266.08
2019-03-02T05:09:07.691Z,97272.22
2019-03-02T05:11:40.724Z,97271.09
2019-03-02T05:14:12.692Z,97266.27
2019-03-02T05:16:43.651Z,97274.38
2019-03-02T05:19:15.000Z,97272.04
2019-03-02T05:21:46.351Z,97272.12
2019-03-02T05:24:23.475Z,97270.59
2019-03-02T05:26:56.806Z,97272.56
2019-03-02T05:29:28.407Z,97270.03
2019-03-02T05:32:00.086Z,97262.52
2019-03-02T05:34:30.787Z,97260.88
2019-03-02T05:37:03.109Z,97259.09
2019-03-02T05:39:34.493Z,97264.92
2019-03-02T05:42:06.078Z,97265.94
2019-03-02T05:44:39.165Z,97262.80
2019-03-02T05:47:10.884Z,97262.11
2019-03-02T05:49:41.824Z,97260.95
2019-03-02T05:52:14.589Z,97262.45
2019-03-02T05:54:46.077Z,97271.45
2019-03-02T05:57:26.541Z,97268.41
2019-03-02T05:59:58.671Z,97270.10
2019-03-02T06:02:29.955Z,97266.48
2019-03-02T06:05:01.747Z,97261.32
2019-03-02T06:07:34.679Z,97263.56
2019-03-02T06:10:07.645Z,97257.83
2019-03-02T06:12:39.023Z,97255.98
2019-03-02T06:15:11.703Z,97250.11
2019-03-02T06:17:43.469Z,97249.51
2019-03-02T06:20:14.105Z,97252.31
2019-03-02T06:22:45.785Z,97252.12
2019-03-02T06:25:20.742Z,97254.05
2019-03-02T06:27:48.974Z,97253.86
2019-03-02T06:30:19.767Z,97256.97
2019-03-02T06:32:51.038Z,97250.76
2019-03-02T06:35:22.056Z,97256.86
2019-03-02T06:37:56.453Z,97256.28
2019-03-02T06:40:27.138Z,97250.97
2019-03-02T06:42:58.184Z,97245.34
2019-03-02T06:45:29.943Z,97249.87
2019-03-02T06:48:01.365Z,97249.06
2019-03-02T06:50:35.689Z,97242.65
2019-03-02T06:53:06.236Z,97245.98
2019-03-02T06:55:38.189Z,97237.59
2019-03-02T06:58:09.628Z,97236.98
2019-03-02T07:00:40.770Z,97233.26
2019-03-02T07:03:12.411Z,97235.48
2019-03-02T07:05:47.237Z,97239.31
2019-03-02T07:08:22.971Z,97229.11
2019-03-02T07:10:57.886Z,97225.88
2019-03-02T07:13:33.382Z,97223.17
2019-03-02T07:16:04.021Z,97228.02
2019-03-02T07:18:52.686Z,97227.50
2019-03-02T07:21:24.035Z,97223.62
2019-03-02T07:23:55.139Z,97223.34
2019-03-02T07:26:26.098Z,97226.05
2019-03-02T07:28:56.826Z,97227.23
2019-03-02T07:31:30.480Z,97218.11
2019-03-02T07:34:01.182Z,97224.81
2019-03-02T07:36:34.133Z,97222.23
2019-03-02T07:39:07.720Z,97218.42
2019-03-02T07:41:38.772Z,97219.34
2019-03-02T07:44:09.736Z,97218.52
2019-03-02T07:46:44.187Z,97218.20
2019-03-02T07:49:14.312Z,97206.38
2019-03-02T07:51:45.662Z,97213.31
2019-03-02T07:54:27.875Z,97215.59
2019-03-02T07:56:59.296Z,97217.17
2019-03-02T07:59:31.142Z,97211.67
2019-03-02T08:02:02.790Z,97207.17
2019-03-02T08:04:35.086Z,97205.05
2019-03-02T08:07:06.491Z,97202.02
2019-03-02T08:09:38.236Z,97198.11
2019-03-02T08:12:08.897Z,97196.13
2019-03-02T08:14:47.838Z,97199.66
2019-03-02T08:17:18.221Z,97202.61
2019-03-02T08:19:49.812Z,97195.27
2019-03-02T08:22:21.274Z,97192.66
2019-03-02T08:24:52.791Z,97191.47
2019-03-02T08:27:23.811Z,97187.90
2019-03-02T08:29:57.296Z,97191.61
2019-03-02T08:32:26.924Z,97194.55
2019-03-02T08:34:58.008Z,97199.69
2019-03-02T08:37:29.931Z,97199.50
2019-03-02T08:40:02.427Z,97195.77
2019-03-02T08:42:33.479Z,97197.16
2019-03-02T08:45:04.839Z,97191.27
2019-03-02T08:47:37.805Z,97188.59
2019-03-02T08:50:10.081Z,97183.32
2019-03-02T08:52:41.116Z,97189.69
2019-03-02T08:55:14.195Z,97184.27
2019-03-02T08:57:46.078Z,97188.22
2019-03-02T09:00:23.454Z,97191.70
2019-03-02T09:03:03.674Z,97187.45
2019-03-02T09:05:51.730Z,97183.80
2019-03-02T09:08:07.959Z,97179.02
2019-03-02T09:10:42.151Z,97181.84
2019-03-02T09:13:13.058Z,97177.97
2019-03-02T09:15:43.713Z,97183.85
2019-03-02T09:18:15.100Z,97180.25
2019-03-02T09:20:46.385Z,97178.05
2019-03-02T09:23:17.554Z,97183.69
2019-03-02T09:25:49.247Z,97180.33
2019-03-02T09:28:20.643Z,97169.38
2019-03-02T09:30:51.617Z,97170.87
2019-03-02T09:33:34.397Z,97164.91
2019-03-02T09:36:05.350Z,97164.98
2019-03-02T09:38:36.688Z,97160.03
2019-03-02T09:41:08.255Z,97159.42
2019-03-02T09:43:40.030Z,97164.42
2019-03-02T09:46:11.776Z,97166.19
2019-03-02T09:48:42.920Z,97169.59
2019-03-02T09:51:14.566Z,97164.72
2019-03-02T09:53:57.954Z,97155.73
2019-03-02T09:56:28.915Z,97158.09
2019-03-02T09:59:01.677Z,97156.25
2019-03-02T10:01:35.782Z,97159.67
2019-03-02T10:04:06.284Z,97162.14
2019-03-02T10:06:36.726Z,97162.66
2019-03-02T10:09:11.208Z,97168.46
2019-03-02T10:11:42.445Z,97163.20
2019-03-02T10:14:29.162Z,97163.39
2019-03-02T10:17:00.094Z,97158.92
2019-03-02T10:19:31.457Z,97163.77
2019-03-02T10:22:02.737Z,97166.48
2019-03-02T10:24:34.217Z,97169.06
2019-03-02T10:27:06.156Z,97157.67
2019-03-02T10:29:37.330Z,97162.58
2019-03-02T10:32:07.685Z,97169.42
2019-03-02T10:34:59.746Z,97168.58
2019-03-02T10:37:30.893Z,97174.85
2019-03-02T10:40:08.833Z,97171.22
2019-03-02T10:42:39.519Z,97167.34
2019-03-02T10:45:14.859Z,97162.95
2019-03-02T10:47:46.935Z,97161.77
2019-03-02T10:50:25.039Z,97165.77
2019-03-02T10:52:58.206Z,97164.98
2019-03-02T10:55:30.041Z,97167.54
2019-03-02T10:58:10.369Z,97162.77
2019-03-02T11:00:41.381Z,97171.19
2019-03-02T11:03:13.251Z,97167.25
2019-03-02T11:06:02.040Z,97164.41
2019-03-02T11:08:51.979Z,97165.30
2019-03-02T11:11:30.937Z,97170.49
2019-03-02T11:14:31.008Z,97163.03
2019-03-02T11:17:19.685Z,97161.52
2019-03-02T11:20:24.316Z,97154.28
2019-03-02T11:23:27.143Z,97154.83
2019-03-02T11:26:18.912Z,97161.15
2019-03-02T11:29:07.175Z,97156.96
2019-03-02T11:32:05.524Z,97153.34
2019-03-02T11:34:54.655Z,97155.02
2019-03-02T11:37:33.471Z,97147.21
2019-03-02T11:40:17.903Z,97155.62
2019-03-02T11:43:23.223Z,97161.56
2019-03-02T11:46:21.527Z,97155.91
2019-03-02T11:49:10.072Z,97153.59
2019-03-02T11:52:03.102Z,97152.81
2019-03-02T11:54:45.463Z,97152.88
2019-03-02T11:57:37.774Z,97148.81
2019-03-02T12:00:26.675Z,97142.30
2019-03-02T12:03:28.554Z,97140.64
2019-03-02T12:06:09.520Z,97136.50
2019-03-02T12:09:02.589Z,97138.34
2019-03-02T12:11:47.295Z,97125.30
2019-03-02T12:14:53.023Z,97127.19
2019-03-02T12:17:47.293Z,97131.39
2019-03-02T12:20:52.352Z,97128.25
2019-03-02T12:23:37.875Z,97132.80
2019-03-02T12:26:32.228Z,97134.17
2019-03-02T12:29:20.879Z,97129.63
2019-03-02T12:32:23.568Z,97125.40
2019-03-02T12:35:09.487Z,97125.38
2019-03-02T12:38:14.491Z,97124.38
2019-03-02T12:41:03.447Z,97119.35
2019-03-02T12:43:45.334Z,97123.22
2019-03-02T12:46:41.174Z,97115.50
2019-03-02T12:49:25.127Z,97120.27
2019-03-02T12:52:06.768Z,97117.05
2019-03-02T12:55:09.487Z,97119.78
2019-03-02T12:57:53.546Z,97108.14
2019-03-02T13:00:29.510Z,97110.47
2019-03-02T13:03:18.952Z,97094.69
2019-03-02T13:06:14.603Z,97101.59
2019-03-02T13:08:59.028Z,97088.61
2019-03-02T13:11:56.490Z,97093.55
2019-03-02T13:14:46.657Z,97094.08
2019-03-02T13:17:37.087Z,97085.08
2019-03-02T13:20:20.176Z,97089.41
2019-03-02T13:23:27.493Z,97079.98
2019-03-02T13:26:13.657Z,97076.40
2019-03-02T13:29:04.209Z,97075.77
2019-03-02T13:31:53.096Z,97076.94
2019-03-02T13:34:49.668Z,97078.77
2019-03-02T13:37:37.616Z,97081.98
2019-03-02T13:40:22.245Z,97070.94
2019-03-02T13:43:28.896Z,97071.38
2019-03-02T13:46:34.839Z,97070.14
2019-03-02T13:49:25.077Z,97066.75
2019-03-02T13:52:33.843Z,97069.44
2019-03-02T13:55:21.037Z,97070.93
2019-03-02T13:58:19.942Z,97061.34
2019-03-02T14:01:10.520Z,97067.20
2019-03-02T14:03:59.193Z,97068.73
2019-03-02T14:06:46.912Z,97072.63
2019-03-02T14:09:48.808Z,97069.57
2019-03-02T14:12:45.208Z,97067.28
2019-03-02T14:15:36.626Z,97071.20
2019-03-02T14:18:32.571Z,97072.79
2019-03-02T14:21:34.475Z,97070.12
2019-03-02T14:24:26.567Z,97080.63
2019-03-02T14:27:17.712Z,97078.27
2019-03-02T14:30:12.225Z,97080.49
2019-03-02T14:33:04.809Z,97078.72
2019-03-02T14:36:02.482Z,97076.57
2019-03-02T14:38:40.408Z,97077.68
2019-03-02T14:41:20.329Z,97081.28
2019-03-02T14:44:00.468Z,97078.12
2019-03-02T14:46:56.174Z,97079.17
2019-03-02T14:50:01.966Z,97078.95
2019-03-02T14:52:55.300Z,97080.68
2019-03-02T14:56:00.108Z,97081.50
2019-03-02T14:59:14.035Z,97077.45
2019-03-02T15:02:16.667Z,97071.89
2019-03-02T15:05:05.237Z,97068.78
2019-03-02T15:08:01.887Z,97073.72
2019-03-02T15:11:00.298Z,97061.30
2019-03-02T15:13:49.940Z,97061.09
2019-03-02T15:16:52.801Z,97067.31
2019-03-02T15:20:01.756Z,97062.05
2019-03-02T15:22:45.898Z,97066.98
2019-03-02T15:25:44.395Z,97063.39
2019-03-02T15:28:46.652Z,97063.22
2019-03-02T15:31:43.136Z,97067.37
2019-03-02T15:34:27.818Z,97067.41
2019-03-02T15:37:24.212Z,97060.02
2019-03-02T15:40:13.750Z,97054.62
2019-03-02T15:43:02.325Z,97053.58
2019-03-02T15:45:55.460Z,97053.63
2019-03-02T15:51:50.403Z,97058.31
2019-03-02T15:54:58.467Z,97053.21
2019-03-02T15:57:48.012Z,97060.47
2019-03-02T16:00:36.546Z,97059.02
2019-03-02T16:03:33.160Z,97065.09
2019-03-02T16:06:29.004Z,97064.25
2019-03-02T16:09:18.842Z,97062.16
2019-03-02T16:12:21.080Z,97062.62
2019-03-02T16:15:12.553Z,97063.62
2019-03-02T16:18:27.452Z,97065.34
2019-03-02T16:21:10.910Z,97065.41
2019-03-02T16:24:12.876Z,97069.61
2019-03-02T16:26:57.854Z,97078.87
2019-03-02T16:29:52.781Z,97073.50
2019-03-02T16:33:09.527Z,97075.64
2019-03-02T16:35:57.005Z,97075.55
2019-03-02T16:38:44.388Z,97081.50
2019-03-02T16:41:43.046Z,97086.65
2019-03-02T16:44:39.258Z,97087.17
2019-03-02T16:47:33.888Z,97091.20
2019-03-02T16:50:39.474Z,97088.93
2019-03-02T16:53:29.580Z,97089.27
2019-03-02T16:56:17.147Z,97093.83
2019-03-02T16:59:20.746Z,97101.31
2019-03-02T17:02:14.423Z,97104.19
2019-03-02T17:04:59.052Z,97105.19
2019-03-02T17:07:42.606Z,97108.62
2019-03-02T17:10:42.011Z,97109.10
2019-03-02T17:13:35.168Z,97105.23
2019-03-02T17:16:46.478Z,97107.99
2019-03-02T17:19:34.694Z,97107.38
2019-03-02T17:22:12.167Z,97115.00
2019-03-02T17:24:58.221Z,97116.20
2019-03-02T17:27:54.033Z,97120.81
2019-03-02T17:30:40.403Z,97124.91
2019-03-02T17:33:26.918Z,97119.61
2019-03-02T17:36:16.412Z,97128.03
2019-03-02T17:39:15.594Z,97135.55
2019-03-02T17:42:18.598Z,97134.77
2019-03-02T17:45:00.400Z,97131.03
2019-03-02T17:47:46.068Z,97140.88
2019-03-02T17:50:34.842Z,97135.74
2019-03-02T17:53:17.440Z,97143.07
2019-03-02T17:56:00.983Z,97143.98
2019-03-02T17:58:39.157Z,97147.56
2019-03-02T18:01:53.739Z,97149.86
2019-03-02T18:04:44.111Z,97152.08
2019-03-02T18:07:44.179Z,97149.20
2019-03-02T18:10:37.909Z,97148.17
2019-03-02T18:13:35.491Z,97152.58
2019-03-02T18:16:41.408Z,97157.93
2019-03-02T18:19:12.719Z,97159.93
2019-03-02T18:21:43.811Z,97164.07
2019-03-02T18:24:15.347Z,97161.38
2019-03-02T18:26:46.674Z,97163.56
2019-03-02T18:29:19.136Z,97172.68
2019-03-02T18:31:53.079Z,97172.99
2019-03-02T18:34:25.183Z,97173.37
2019-03-02T18:36:56.172Z,97175.33
2019-03-02T18:39:29.306Z,97180.63
2019-03-02T18:42:01.860Z,97184.55
2019-03-02T18:44:33.608Z,97187.89
2019-03-02T18:47:06.873Z,97188.49
2019-03-02T18:49:47.564Z,97188.11
2019-03-02T18:52:37.599Z,97190.88
2019-03-02T18:55:09.722Z,97187.36
2019-03-02T18:57:40.834Z,97197.56
2019-03-02T19:00:22.146Z,97194.78
2019-03-02T19:02:52.915Z,97195.34
2019-03-02T19:05:31.197Z,97197.67
2019-03-02T19:08:03.442Z,97199.27
2019-03-02T19:10:34.093Z,97196.17
2019-03-02T19:13:08.285Z,97202.51
2019-03-02T19:15:38.573Z,97206.14
2019-03-02T19:18:10.272Z,97200.74
2019-03-02T19:20:41.632Z,97197.84
2019-03-02T19:23:12.694Z,97201.61
2019-03-02T19:25:44.544Z,97200.06
2019-03-02T19:28:15.879Z,97209.17
2019-03-02T19:30:46.499Z,97218.22
2019-03-02T19:33:17.984Z,97211.55
2019-03-02T19:35:48.792Z,97212.68
2019-03-02T19:38:19.897Z,97219.32
2019-03-02T19:40:51.239Z,97224.75
2019-03-02T19:43:22.167Z,97229.73
2019-03-02T19:45:53.934Z,97225.77
2019-03-02T19:48:24.849Z,97231.00
2019-03-02T19:50:57.245Z,97239.27
2019-03-02T19:53:35.231Z,97238.36
2019-03-02T19:56:15.113Z,97246.50
2019-03-02T19:58:47.748Z,97253.34
2019-03-02T20:01:20.056Z,97255.66
2019-03-02T20:03:51.413Z,97254.18
2019-03-02T20:06:25.569Z,97247.69
2019-03-02T20:08:57.665Z,97252.80
2019-03-02T20:11:29.050Z,97248.01
2019-03-02T20:14:00.146Z,97248.50
2019-03-02T20:16:32.346Z,97252.17
2019-03-02T20:19:09.862Z,97247.94
2019-03-02T20:21:41.918Z,97239.75
2019-03-02T20:24:15.505Z,97238.29
2019-03-02T20:26:47.553Z,97239.00
2019-03-02T20:29:18.859Z,97239.94
2019-03-02T20:31:50.446Z,97238.91
2019-03-02T20:34:21.956Z,97238.46
2019-03-02T20:36:53.514Z,97236.97
2019-03-02T20:39:25.221Z,97240.84
2019-03-02T20:41:56.249Z,97242.06
2019-03-02T20:44:27.351Z,97246.31
2019-03-02T20:46:59.913Z,97249.69
2019-03-02T20:49:31.898Z,97250.28
2019-03-02T20:52:03.747Z,97254.66
2019-03-02T20:54:35.068Z,97248.31
2019-03-02T20:57:06.047Z,97245.62
2019-03-02T20:59:37.608Z,97252.03
2019-03-02T21:02:08.668Z,97252.48
2019-03-02T21:04:40.115Z,97255.50
2019-03-02T21:07:11.883Z,97246.84
2019-03-02T21:09:43.420Z,97253.00
2019-03-02T21:12:15.462Z,97256.91
2019-03-02T21:14:46.813Z,97260.80
2019-03-02T21:17:18.731Z,97270.30
2019-03-02T21:19:50.148Z,97277.38
2019-03-02T21:22:21.666Z,97280.69
2019-03-02T21:24:53.115Z,97278.87
2019-03-02T21:27:24.801Z,97282.56
2019-03-02T21:29:55.935Z,97287.42
2019-03-02T21:32:31.310Z,97279.09
2019-03-02T21:35:02.582Z,97278.95
2019-03-02T21:37:32.864Z,97273.84
2019-03-02T21:40:03.945Z,97269.73
2019-03-02T21:42:36.000Z,97266.70
2019-03-02T21:45:08.527Z,97266.64
2019-03-02T21:47:40.247Z,97273.56
2019-03-02T21:50:14.243Z,97269.34
2019-03-02T21:52:45.418Z,97268.92
2019-03-02T21:55:16.866Z,97262.92
2019-03-02T21:57:48.741Z,97268.69
2019-03-02T22:00:24.131Z,97264.41
2019-03-02T22:02:55.476Z,97269.62
2019-03-02T22:05:42.325Z,97269.06
2019-03-02T22:08:13.200Z,97266.88
2019-03-02T22:10:49.061Z,97273.05
2019-03-02T22:13:22.089Z,97270.80
2019-03-02T22:15:53.215Z,97272.72
2019-03-02T22:18:25.806Z,97274.91
2019-03-02T22:20:58.977Z,97273.63
2019-03-02T22:23:30.462Z,97271.91
2019-03-02T22:26:01.463Z,97271.47
2019-03-02T22:28:32.500Z,97273.64
2019-03-02T22:31:03.506Z,97274.82
2019-03-02T22:33:34.240Z,97273.22
2019-03-02T22:36:05.307Z,97279.48
2019-03-02T22:38:37.380Z,97279.31
2019-03-02T22:41:09.294Z,97285.78
2019-03-02T22:43:47.768Z,97286.78
2019-03-02T22:46:18.749Z,97280.60
2019-03-02T22:48:49.002Z,97287.05
2019-03-02T22:51:20.422Z,97282.39
2019-03-02T22:53:51.935Z,97276.06
2019-03-02T22:56:23.074Z,97284.02
2019-03-02T22:58:53.793Z,97288.16
2019-03-02T23:01:56.449Z,97293.23
2019-03-02T23:04:27.176Z,97291.21
2019-03-02T23:06:58.766Z,97290.13
2019-03-02T23:09:30.169Z,97292.11
2019-03-02T23:12:01.555Z,97295.34
2019-03-02T23:14:32.688Z,97290.48
2019-03-02T23:17:25.566Z,97285.11
2019-03-02T23:19:56.506Z,97281.09
2019-03-02T23:22:27.968Z,97281.88
2019-03-02T23:24:58.673Z,97270.58
2019-03-02T23:27:30.103Z,97271.26
2019-03-02T23:30:01.829Z,97270.58
2019-03-02T23:32:34.451Z,97270.17
2019-03-02T23:35:05.731Z,97261.51
2019-03-02T23:37:36.836Z,97254.31
2019-03-02T23:40:09.608Z,97247.68
2019-03-02T23:42:40.955Z,97254.20
2019-03-02T23:45:13.305Z,97249.34
2019-03-02T23:47:44.522Z,97252.20
2019-03-02T23:50:15.210Z,97247.09
2019-03-02T23:52:46.137Z,97253.77
2019-03-02T23:55:17.134Z,97256.87
2019-03-02T23:57:47.826Z,97252.69
